createdAt,value
2022-09-14T00:00:11.810Z,1002.00
2022-09-14T00:00:58.536Z,1002.06
2022-09-14T00:01:25.857Z,1002.05
2022-09-14T00:01:57.984Z,1002.03
2022-09-14T00:02:33.055Z,1002.03
2022-09-14T00:03:08.322Z,1002.00
2022-09-14T00:03:43.315Z,1002.03
2022-09-14T00:04:18.379Z,1002.05
2022-09-14T00:04:53.689Z,1002.08
2022-09-14T00:05:28.573Z,1002.07
2022-09-14T00:06:03.777Z,1002.07
2022-09-14T00:06:39.188Z,1002.08
2022-09-14T00:07:14.301Z,1002.08
2022-09-14T00:07:49.381Z,1002.10
2022-09-14T00:08:24.497Z,1002.08
2022-09-14T00:08:59.619Z,1002.07
2022-09-14T00:09:34.913Z,1002.08
2022-09-14T00:10:10.104Z,1002.05
2022-09-14T00:10:45.581Z,1002.05
2022-09-14T00:11:21.176Z,1002.07
2022-09-14T00:11:56.196Z,1002.06
2022-09-14T00:12:31.665Z,1002.05
2022-09-14T00:13:07.110Z,1002.07
2022-09-14T00:13:42.628Z,1002.06
2022-09-14T00:14:17.734Z,1002.06
2022-09-14T00:14:53.046Z,1002.03
2022-09-14T00:15:28.148Z,1002.09
2022-09-14T00:16:03.167Z,1002.03
2022-09-14T00:16:38.543Z,1002.05
2022-09-14T00:17:13.605Z,1002.03
2022-09-14T00:17:49.120Z,1002.00
2022-09-14T00:18:24.463Z,1002.04
2022-09-14T00:18:59.670Z,1002.01
2022-09-14T00:19:34.895Z,1002.01
2022-09-14T00:20:10.218Z,1002.02
2022-09-14T00:20:45.754Z,1002.02
2022-09-14T00:21:21.069Z,1002.03
2022-09-14T00:21:56.499Z,1001.95
2022-09-14T00:22:31.490Z,1001.98
2022-09-14T00:23:06.704Z,1001.97
2022-09-14T00:23:42.063Z,1001.99
2022-09-14T00:24:17.252Z,1001.95
2022-09-14T00:24:52.731Z,1001.94
2022-09-14T00:25:28.031Z,1001.95
2022-09-14T00:26:03.524Z,1001.93
2022-09-14T00:26:38.818Z,1001.92
2022-09-14T00:27:13.764Z,1001.92
2022-09-14T00:27:48.964Z,1001.91
2022-09-14T00:28:24.146Z,1001.88
2022-09-14T00:28:59.652Z,1001.91
2022-09-14T00:29:34.586Z,1001.88
2022-09-14T00:30:09.611Z,1001.84
2022-09-14T00:30:44.959Z,1001.84
2022-09-14T00:31:20.118Z,1001.87
2022-09-14T00:31:55.311Z,1001.84
2022-09-14T00:32:30.179Z,1001.84
2022-09-14T00:33:05.309Z,1001.84
2022-09-14T00:33:40.461Z,1001.82
2022-09-14T00:34:15.642Z,1001.80
2022-09-14T00:34:51.173Z,1001.81
2022-09-14T00:35:26.701Z,1001.78
2022-09-14T00:36:01.988Z,1001.79
2022-09-14T00:36:36.989Z,1001.79
2022-09-14T00:37:12.210Z,1001.79
2022-09-14T00:37:47.520Z,1001.78
2022-09-14T00:38:22.943Z,1001.75
2022-09-14T00:38:58.089Z,1001.81
2022-09-14T00:39:33.248Z,1001.78
2022-09-14T00:40:08.589Z,1001.78
2022-09-14T00:40:44.160Z,1001.76
2022-09-14T00:41:19.184Z,1001.77
2022-09-14T00:41:54.766Z,1001.72
2022-09-14T00:42:30.081Z,1001.74
2022-09-14T00:43:05.522Z,1001.71
2022-09-14T00:43:40.640Z,1001.75
2022-09-14T00:44:15.836Z,1001.73
2022-09-14T00:44:51.353Z,1001.72
2022-09-14T00:45:26.597Z,1001.73
2022-09-14T00:46:01.627Z,1001.75
2022-09-14T00:46:36.835Z,1001.73
2022-09-14T00:47:12.215Z,1001.72
2022-09-14T00:47:47.520Z,1001.70
2022-09-14T00:48:22.973Z,1001.67
2022-09-14T00:48:58.255Z,1001.67
2022-09-14T00:49:33.350Z,1001.67
2022-09-14T00:50:08.812Z,1001.63
2022-09-14T00:50:44.469Z,1001.60
2022-09-14T00:51:19.552Z,1001.58
2022-09-14T00:51:54.970Z,1001.60
2022-09-14T00:52:30.069Z,1001.54
2022-09-14T00:53:05.391Z,1001.51
2022-09-14T00:53:40.919Z,1001.51
2022-09-14T00:54:15.910Z,1001.51
2022-09-14T00:54:51.110Z,1001.50
2022-09-14T00:55:26.312Z,1001.49
2022-09-14T00:56:01.507Z,1001.50
2022-09-14T00:56:36.631Z,1001.52
2022-09-14T00:57:11.745Z,1001.58
2022-09-14T00:57:46.830Z,1001.54
2022-09-14T00:58:22.134Z,1001.52
2022-09-14T00:58:57.570Z,1001.53
2022-09-14T00:59:32.673Z,1001.49
2022-09-14T01:00:07.870Z,1001.48
2022-09-14T01:00:43.225Z,1001.49
2022-09-14T01:01:18.700Z,1001.46
2022-09-14T01:01:54.060Z,1001.46
2022-09-14T01:02:29.123Z,1001.40
2022-09-14T01:03:04.068Z,1001.41
2022-09-14T01:03:39.486Z,1001.39
2022-09-14T01:04:15.119Z,1001.40
2022-09-14T01:04:50.117Z,1001.38
2022-09-14T01:05:25.321Z,1001.39
2022-09-14T01:06:00.843Z,1001.41
2022-09-14T01:06:36.045Z,1001.38
2022-09-14T01:07:11.836Z,1001.40
2022-09-14T01:07:47.138Z,1001.37
2022-09-14T01:08:22.532Z,1001.41
2022-09-14T01:08:57.846Z,1001.39
2022-09-14T01:09:33.173Z,1001.36
2022-09-14T01:10:08.195Z,1001.37
2022-09-14T01:10:43.608Z,1001.41
2022-09-14T01:11:18.714Z,1001.34
2022-09-14T01:11:53.829Z,1001.37
2022-09-14T01:12:29.122Z,1001.35
2022-09-14T01:13:04.535Z,1001.39
2022-09-14T01:13:39.807Z,1001.37
2022-09-14T01:14:14.839Z,1001.33
2022-09-14T01:14:50.171Z,1001.33
2022-09-14T01:15:25.502Z,1001.36
2022-09-14T01:16:00.667Z,1001.36
2022-09-14T01:16:35.661Z,1001.36
2022-09-14T01:17:11.067Z,1001.32
2022-09-14T01:17:46.350Z,1001.31
2022-09-14T01:18:21.651Z,1001.36
2022-09-14T01:18:56.843Z,1001.35
2022-09-14T01:19:32.063Z,1001.28
2022-09-14T01:20:07.497Z,1001.31
2022-09-14T01:20:42.486Z,1001.28
2022-09-14T01:21:17.813Z,1001.28
2022-09-14T01:21:53.106Z,1001.31
2022-09-14T01:22:28.619Z,1001.30
2022-09-14T01:23:03.951Z,1001.29
2022-09-14T01:23:39.078Z,1001.25
2022-09-14T01:24:14.297Z,1001.27
2022-09-14T01:24:49.275Z,1001.27
2022-09-14T01:25:24.512Z,1001.25
2022-09-14T01:25:59.537Z,1001.23
2022-09-14T01:26:34.632Z,1001.22
2022-09-14T01:27:09.741Z,1001.23
2022-09-14T01:27:44.946Z,1001.22
2022-09-14T01:28:20.443Z,1001.19
2022-09-14T01:28:55.969Z,1001.20
2022-09-14T01:29:31.381Z,1001.19
2022-09-14T01:30:06.597Z,1001.20
2022-09-14T01:30:41.701Z,1001.21
2022-09-14T01:31:17.027Z,1001.20
2022-09-14T01:31:52.212Z,1001.18
2022-09-14T01:32:27.421Z,1001.19
2022-09-14T01:33:02.922Z,1001.17
2022-09-14T01:33:38.114Z,1001.20
2022-09-14T01:34:13.359Z,1001.17
2022-09-14T01:34:48.762Z,1001.16
2022-09-14T01:35:24.230Z,1001.14
2022-09-14T01:35:59.254Z,1001.16
2022-09-14T01:36:34.550Z,1001.13
2022-09-14T01:37:09.862Z,1001.16
2022-09-14T01:37:44.967Z,1001.14
2022-09-14T01:38:20.300Z,1001.17
2022-09-14T01:38:55.588Z,1001.19
2022-09-14T01:39:30.894Z,1001.18
2022-09-14T01:40:06.504Z,1001.16
2022-09-14T01:40:41.817Z,1001.19
2022-09-14T01:41:16.712Z,1001.15
2022-09-14T01:41:52.331Z,1001.18
2022-09-14T01:42:27.534Z,1001.19
2022-09-14T01:43:02.654Z,1001.18
2022-09-14T01:43:37.750Z,1001.14
2022-09-14T01:44:13.133Z,1001.12
2022-09-14T01:44:48.138Z,1001.10
2022-09-14T01:45:23.680Z,1001.09
2022-09-14T01:45:59.065Z,1001.11
2022-09-14T01:46:34.278Z,1001.09
2022-09-14T01:47:09.472Z,1001.11
2022-09-14T01:47:44.875Z,1001.11
2022-09-14T01:48:19.886Z,1001.07
2022-09-14T01:48:55.401Z,1001.08
2022-09-14T01:49:30.916Z,1001.06
2022-09-14T01:50:06.239Z,1001.08
2022-09-14T01:50:41.536Z,1001.07
2022-09-14T01:51:16.952Z,1001.07
2022-09-14T01:51:51.965Z,1001.11
2022-09-14T01:52:27.369Z,1001.09
2022-09-14T01:53:02.583Z,1001.09
2022-09-14T01:53:37.486Z,1001.12
2022-09-14T01:54:12.811Z,1001.12
2022-09-14T01:54:48.143Z,1001.11
2022-09-14T01:55:23.739Z,1001.11
2022-09-14T01:55:59.204Z,1001.09
2022-09-14T01:56:34.585Z,1001.09
2022-09-14T01:57:09.796Z,1001.10
2022-09-14T01:57:44.895Z,1001.08
2022-09-14T01:58:19.882Z,1001.02
2022-09-14T01:58:55.111Z,1001.04
2022-09-14T01:59:30.186Z,1001.08
2022-09-14T02:00:05.305Z,1001.03
2022-09-14T02:00:40.772Z,1001.06
2022-09-14T02:01:16.176Z,1001.06
2022-09-14T02:01:52.026Z,1001.03
2022-09-14T02:02:26.493Z,1001.06
2022-09-14T02:03:01.995Z,1001.05
2022-09-14T02:03:37.281Z,1001.10
2022-09-14T02:04:12.205Z,1001.03
2022-09-14T02:04:47.243Z,1001.04
2022-09-14T02:05:22.635Z,1001.04
2022-09-14T02:05:57.772Z,1000.98
2022-09-14T02:06:32.969Z,1001.00
2022-09-14T02:07:08.403Z,1000.98
2022-09-14T02:07:43.790Z,1000.96
2022-09-14T02:08:18.980Z,1000.94
2022-09-14T02:08:54.103Z,1000.91
2022-09-14T02:09:29.394Z,1000.90
2022-09-14T02:10:04.416Z,1000.92
2022-09-14T02:10:39.652Z,1000.93
2022-09-14T02:11:14.858Z,1000.91
2022-09-14T02:11:49.969Z,1000.91
2022-09-14T02:12:25.167Z,1000.93
2022-09-14T02:13:00.234Z,1000.92
2022-09-14T02:13:35.251Z,1000.93
2022-09-14T02:14:10.351Z,1000.92
2022-09-14T02:14:45.655Z,1000.96
2022-09-14T02:15:20.843Z,1000.94
2022-09-14T02:15:56.307Z,1000.96
2022-09-14T02:16:31.560Z,1000.91
2022-09-14T02:17:06.700Z,1000.93
2022-09-14T02:17:41.894Z,1000.92
2022-09-14T02:18:16.903Z,1000.91
2022-09-14T02:18:52.212Z,1000.92
2022-09-14T02:19:27.629Z,1000.93
2022-09-14T02:20:02.941Z,1000.92
2022-09-14T02:20:38.359Z,1000.89
2022-09-14T02:21:13.485Z,1000.89
2022-09-14T02:21:48.775Z,1000.88
2022-09-14T02:22:23.981Z,1000.86
2022-09-14T02:22:59.071Z,1000.88
2022-09-14T02:23:34.081Z,1000.86
2022-09-14T02:24:09.190Z,1000.83
2022-09-14T02:24:44.487Z,1000.85
2022-09-14T02:25:19.712Z,1000.81
2022-09-14T02:25:54.999Z,1000.85
2022-09-14T02:26:30.319Z,1000.82
2022-09-14T02:27:05.429Z,1000.80
2022-09-14T02:27:40.741Z,1000.83
2022-09-14T02:28:15.987Z,1000.85
2022-09-14T02:28:50.978Z,1000.85
2022-09-14T02:29:26.078Z,1000.86
2022-09-14T02:30:01.275Z,1000.87
2022-09-14T02:30:36.367Z,1000.81
2022-09-14T02:31:11.620Z,1000.83
2022-09-14T02:31:47.180Z,1000.81
2022-09-14T02:32:22.259Z,1000.77
2022-09-14T02:32:57.777Z,1000.76
2022-09-14T02:33:32.970Z,1000.72
2022-09-14T02:34:08.089Z,1000.71
2022-09-14T02:34:43.389Z,1000.75
2022-09-14T02:35:18.908Z,1000.73
2022-09-14T02:35:54.144Z,1000.73
2022-09-14T02:36:29.655Z,1000.78
2022-09-14T02:37:04.966Z,1000.76
2022-09-14T02:37:40.190Z,1000.82
2022-09-14T02:38:15.425Z,1000.84
2022-09-14T02:38:50.712Z,1000.83
2022-09-14T02:39:26.011Z,1000.83
2022-09-14T02:40:01.354Z,1000.85
2022-09-14T02:40:36.432Z,1000.82
2022-09-14T02:41:11.545Z,1000.84
2022-09-14T02:41:46.773Z,1000.79
2022-09-14T02:42:22.208Z,1000.79
2022-09-14T02:42:57.408Z,1000.77
2022-09-14T02:43:32.825Z,1000.78
2022-09-14T02:44:08.014Z,1000.76
2022-09-14T02:44:43.253Z,1000.70
2022-09-14T02:45:18.550Z,1000.72
2022-09-14T02:45:53.858Z,1000.67
2022-09-14T02:46:29.327Z,1000.67
2022-09-14T02:47:04.942Z,1000.64
2022-09-14T02:47:39.888Z,1000.61
2022-09-14T02:48:15.203Z,1000.61
2022-09-14T02:48:50.390Z,1000.65
2022-09-14T02:49:25.835Z,1000.63
2022-09-14T02:50:01.232Z,1000.65
2022-09-14T02:50:36.443Z,1000.67
2022-09-14T02:51:11.763Z,1000.65
2022-09-14T02:51:47.067Z,1000.66
2022-09-14T02:52:22.300Z,1000.70
2022-09-14T02:52:57.425Z,1000.69
2022-09-14T02:53:32.739Z,1000.63
2022-09-14T02:54:08.213Z,1000.66
2022-09-14T02:54:43.624Z,1000.64
2022-09-14T02:55:18.746Z,1000.67
2022-09-14T02:55:53.863Z,1000.68
2022-09-14T02:56:29.046Z,1000.66
2022-09-14T02:57:04.244Z,1000.70
2022-09-14T02:57:39.581Z,1000.71
2022-09-14T02:58:15.024Z,1000.72
2022-09-14T02:58:50.277Z,1000.68
2022-09-14T02:59:25.662Z,1000.70
2022-09-14T03:00:00.819Z,1000.69
2022-09-14T03:00:36.167Z,1000.68
2022-09-14T03:01:11.460Z,1000.70
2022-09-14T03:01:46.535Z,1000.65
2022-09-14T03:02:21.782Z,1000.69
2022-09-14T03:02:56.805Z,1000.68
2022-09-14T03:03:35.452Z,1000.70
2022-09-14T03:04:07.424Z,1000.66
2022-09-14T03:04:42.460Z,1000.70
2022-09-14T03:05:17.611Z,1000.68
2022-09-14T03:05:52.600Z,1000.70
2022-09-14T03:06:27.922Z,1000.75
2022-09-14T03:07:03.335Z,1000.71
2022-09-14T03:07:38.449Z,1000.72
2022-09-14T03:08:13.572Z,1000.71
2022-09-14T03:08:49.039Z,1000.69
2022-09-14T03:09:24.359Z,1000.72
2022-09-14T03:09:59.504Z,1000.67
2022-09-14T03:10:34.976Z,1000.69
2022-09-14T03:11:10.571Z,1000.65
2022-09-14T03:11:46.063Z,1000.61
2022-09-14T03:12:21.373Z,1000.62
2022-09-14T03:12:56.885Z,1000.58
2022-09-14T03:13:32.329Z,1000.60
2022-09-14T03:14:07.550Z,1000.58
2022-09-14T03:14:42.855Z,1000.57
2022-09-14T03:15:18.081Z,1000.53
2022-09-14T03:15:53.416Z,1000.57
2022-09-14T03:16:28.796Z,1000.53
2022-09-14T03:17:03.923Z,1000.54
2022-09-14T03:17:39.579Z,1000.54
2022-09-14T03:18:14.799Z,1000.51
2022-09-14T03:18:50.234Z,1000.53
2022-09-14T03:19:25.853Z,1000.53
2022-09-14T03:20:00.955Z,1000.52
2022-09-14T03:20:36.368Z,1000.50
2022-09-14T03:21:11.476Z,1000.52
2022-09-14T03:21:46.889Z,1000.52
2022-09-14T03:22:22.103Z,1000.47
2022-09-14T03:22:57.312Z,1000.47
2022-09-14T03:23:32.651Z,1000.44
2022-09-14T03:24:08.048Z,1000.46
2022-09-14T03:24:43.684Z,1000.42
2022-09-14T03:25:18.778Z,1000.49
2022-09-14T03:25:53.807Z,1000.46
2022-09-14T03:26:28.915Z,1000.44
2022-09-14T03:27:04.346Z,1000.45
2022-09-14T03:27:39.542Z,1000.41
2022-09-14T03:28:14.552Z,1000.42
2022-09-14T03:28:49.780Z,1000.41
2022-09-14T03:29:24.800Z,1000.40
2022-09-14T03:30:00.080Z,1000.40
2022-09-14T03:30:35.254Z,1000.38
2022-09-14T03:31:10.573Z,1000.40
2022-09-14T03:31:45.727Z,1000.40
2022-09-14T03:32:21.003Z,1000.40
2022-09-14T03:32:56.314Z,1000.40
2022-09-14T03:33:31.799Z,1000.40
2022-09-14T03:34:07.297Z,1000.45
2022-09-14T03:34:42.504Z,1000.44
2022-09-14T03:35:17.664Z,1000.44
2022-09-14T03:35:52.597Z,1000.43
2022-09-14T03:36:27.827Z,1000.41
2022-09-14T03:37:03.241Z,1000.41
2022-09-14T03:37:38.826Z,1000.39
2022-09-14T03:38:14.080Z,1000.43
2022-09-14T03:38:49.370Z,1000.40
2022-09-14T03:39:24.686Z,1000.38
2022-09-14T03:39:59.716Z,1000.36
2022-09-14T03:40:35.149Z,1000.35
2022-09-14T03:41:10.623Z,1000.34
2022-09-14T03:41:45.919Z,1000.36
2022-09-14T03:42:21.340Z,1000.35
2022-09-14T03:42:56.534Z,1000.31
2022-09-14T03:43:31.552Z,1000.36
2022-09-14T03:44:07.010Z,1000.34
2022-09-14T03:44:42.500Z,1000.32
2022-09-14T03:45:17.827Z,1000.32
2022-09-14T03:45:53.076Z,1000.34
2022-09-14T03:46:28.594Z,1000.38
2022-09-14T03:47:03.731Z,1000.35
2022-09-14T03:47:39.156Z,1000.39
2022-09-14T03:48:14.989Z,1000.37
2022-09-14T03:48:50.303Z,1000.40
2022-09-14T03:49:25.705Z,1000.35
2022-09-14T03:50:00.837Z,1000.37
2022-09-14T03:50:35.946Z,1000.33
2022-09-14T03:51:11.193Z,1000.35
2022-09-14T03:51:46.498Z,1000.34
2022-09-14T03:52:22.007Z,1000.33
2022-09-14T03:52:57.249Z,1000.31
2022-09-14T03:53:32.383Z,1000.32
2022-09-14T03:54:07.560Z,1000.33
2022-09-14T03:54:42.671Z,1000.29
2022-09-14T03:55:18.183Z,1000.30
2022-09-14T03:55:53.705Z,1000.29
2022-09-14T03:56:29.117Z,1000.28
2022-09-14T03:57:04.530Z,1000.30
2022-09-14T03:57:39.633Z,1000.30
2022-09-14T03:58:14.794Z,1000.23
2022-09-14T03:58:50.499Z,1000.28
2022-09-14T03:59:25.490Z,1000.27
2022-09-14T04:00:00.745Z,1000.25
2022-09-14T04:00:36.199Z,1000.24
2022-09-14T04:01:11.571Z,1000.22
2022-09-14T04:01:47.153Z,1000.27
2022-09-14T04:02:22.450Z,1000.25
2022-09-14T04:02:58.230Z,1000.24
2022-09-14T04:03:33.141Z,1000.19
2022-09-14T04:04:08.251Z,1000.22
2022-09-14T04:04:43.343Z,1000.22
2022-09-14T04:05:21.697Z,1000.21
2022-09-14T04:05:53.782Z,1000.23
2022-09-14T04:06:29.009Z,1000.20
2022-09-14T04:07:04.349Z,1000.18
2022-09-14T04:07:39.547Z,1000.15
2022-09-14T04:08:14.748Z,1000.19
2022-09-14T04:08:49.885Z,1000.17
2022-09-14T04:09:24.971Z,1000.15
2022-09-14T04:10:00.274Z,1000.15
2022-09-14T04:10:35.663Z,1000.16
2022-09-14T04:11:10.881Z,1000.16
2022-09-14T04:11:46.251Z,1000.18
2022-09-14T04:12:21.822Z,1000.14
2022-09-14T04:12:57.136Z,1000.12
2022-09-14T04:13:32.434Z,1000.13
2022-09-14T04:14:07.783Z,1000.16
2022-09-14T04:14:42.766Z,1000.15
2022-09-14T04:15:17.812Z,1000.11
2022-09-14T04:15:53.228Z,1000.10
2022-09-14T04:16:28.422Z,1000.08
2022-09-14T04:17:03.471Z,1000.09
2022-09-14T04:17:45.844Z,1000.09
2022-09-14T04:18:21.071Z,1000.09
2022-09-14T04:18:56.494Z,1000.10
2022-09-14T04:19:31.807Z,1000.09
2022-09-14T04:20:07.248Z,1000.07
2022-09-14T04:20:42.261Z,1000.11
2022-09-14T04:21:17.499Z,1000.11
2022-09-14T04:21:53.044Z,1000.09
2022-09-14T04:22:28.363Z,1000.10
2022-09-14T04:23:03.714Z,1000.09
2022-09-14T04:24:10.236Z,1000.09
2022-09-14T04:24:15.730Z,1000.12
2022-09-14T04:24:49.602Z,1000.10
2022-09-14T04:25:24.806Z,1000.11
2022-09-14T04:26:00.009Z,1000.12
2022-09-14T04:26:35.239Z,1000.15
2022-09-14T04:27:10.581Z,1000.12
2022-09-14T04:27:55.015Z,1000.13
2022-09-14T04:28:21.648Z,1000.10
2022-09-14T04:28:56.846Z,1000.11
2022-09-14T04:29:32.212Z,1000.13
2022-09-14T04:30:07.348Z,1000.12
2022-09-14T04:30:42.615Z,1000.11
2022-09-14T04:31:18.091Z,1000.09
2022-09-14T04:31:53.439Z,1000.09
2022-09-14T04:32:32.199Z,1000.11
2022-09-14T04:33:04.364Z,1000.04
2022-09-14T04:33:39.743Z,1000.08
2022-09-14T04:34:14.789Z,1000.07
2022-09-14T04:34:49.948Z,1000.13
2022-09-14T04:35:25.159Z,1000.11
2022-09-14T04:36:00.377Z,1000.09
2022-09-14T04:36:35.628Z,1000.09
2022-09-14T04:37:10.817Z,1000.10
2022-09-14T04:37:46.123Z,1000.08
2022-09-14T04:38:21.231Z,1000.08
2022-09-14T04:38:56.680Z,1000.09
2022-09-14T04:39:32.351Z,1000.06
2022-09-14T04:40:07.740Z,1000.04
2022-09-14T04:40:42.941Z,1000.06
2022-09-14T04:41:18.070Z,1000.07
2022-09-14T04:41:53.175Z,1000.05
2022-09-14T04:42:28.886Z,1000.04
2022-09-14T04:43:04.398Z,1000.08
2022-09-14T04:43:39.543Z,1000.03
2022-09-14T04:44:15.052Z,1000.04
2022-09-14T04:44:50.459Z,1000.05
2022-09-14T04:45:25.799Z,1000.00
2022-09-14T04:46:01.237Z,1000.02
2022-09-14T04:46:36.645Z,999.98
2022-09-14T04:47:12.213Z,1000.01
2022-09-14T04:47:47.639Z,1000.00
2022-09-14T04:48:22.726Z,1000.03
2022-09-14T04:48:58.163Z,1000.00
2022-09-14T04:49:33.625Z,1000.00
2022-09-14T04:50:08.934Z,1000.01
2022-09-14T04:50:44.290Z,999.97
2022-09-14T04:51:19.166Z,999.98
2022-09-14T04:51:54.275Z,999.99
2022-09-14T04:52:29.605Z,999.95
2022-09-14T04:53:04.839Z,999.94
2022-09-14T04:53:39.992Z,999.93
2022-09-14T04:54:15.091Z,999.91
2022-09-14T04:54:50.598Z,999.89
2022-09-14T04:55:25.703Z,999.91
2022-09-14T04:56:01.036Z,999.92
2022-09-14T04:56:35.913Z,999.94
2022-09-14T04:57:11.766Z,999.93
2022-09-14T04:57:47.199Z,999.94
2022-09-14T04:58:22.411Z,999.94
2022-09-14T04:58:58.994Z,999.89
2022-09-14T04:59:34.599Z,999.92
2022-09-14T05:00:10.021Z,999.91
2022-09-14T05:00:45.627Z,999.92
2022-09-14T05:01:20.968Z,999.92
2022-09-14T05:01:56.341Z,999.93
2022-09-14T05:02:31.728Z,999.94
2022-09-14T05:03:07.152Z,999.89
2022-09-14T05:03:42.842Z,999.92
2022-09-14T05:04:17.799Z,999.91
2022-09-14T05:04:53.215Z,999.91
2022-09-14T05:05:28.421Z,999.89
2022-09-14T05:06:03.455Z,999.90
2022-09-14T05:06:38.785Z,999.92
2022-09-14T05:07:14.091Z,999.92
2022-09-14T05:07:49.630Z,999.91
2022-09-14T05:08:24.883Z,999.93
2022-09-14T05:08:59.927Z,999.92
2022-09-14T05:09:35.272Z,999.90
2022-09-14T05:10:10.584Z,999.91
2022-09-14T05:10:45.928Z,999.93
2022-09-14T05:11:21.365Z,999.92
2022-09-14T05:11:56.695Z,999.92
2022-09-14T05:12:31.903Z,999.92
2022-09-14T05:13:07.027Z,999.92
2022-09-14T05:13:43.395Z,999.90
2022-09-14T05:14:17.704Z,999.93
2022-09-14T05:14:53.057Z,999.94
2022-09-14T05:15:28.573Z,999.92
2022-09-14T05:16:04.382Z,999.95
2022-09-14T05:16:39.443Z,999.94
2022-09-14T05:17:14.664Z,999.91
2022-09-14T05:17:49.986Z,999.94
2022-09-14T05:18:25.403Z,999.95
2022-09-14T05:19:00.843Z,999.90
2022-09-14T05:19:36.277Z,999.90
2022-09-14T05:20:11.549Z,999.91
2022-09-14T05:20:46.668Z,999.91
2022-09-14T05:21:21.777Z,999.92
2022-09-14T05:21:57.035Z,999.93
2022-09-14T05:22:32.140Z,999.92
2022-09-14T05:23:07.862Z,999.93
2022-09-14T05:23:42.862Z,999.92
2022-09-14T05:24:18.153Z,999.90
2022-09-14T05:24:53.152Z,999.86
2022-09-14T05:25:28.702Z,999.88
2022-09-14T05:26:04.117Z,999.90
2022-09-14T05:26:39.546Z,999.86
2022-09-14T05:27:14.672Z,999.88
2022-09-14T05:27:50.023Z,999.85
2022-09-14T05:28:25.579Z,999.84
2022-09-14T05:29:00.790Z,999.83
2022-09-14T05:29:36.038Z,999.87
2022-09-14T05:30:11.251Z,999.83
2022-09-14T05:30:47.017Z,999.81
2022-09-14T05:31:22.654Z,999.81
2022-09-14T05:31:58.039Z,999.81
2022-09-14T05:32:33.161Z,999.84
2022-09-14T05:33:08.485Z,999.81
2022-09-14T05:33:44.164Z,999.84
2022-09-14T05:34:19.238Z,999.85
2022-09-14T05:34:54.689Z,999.82
2022-09-14T05:35:30.038Z,999.84
2022-09-14T05:36:05.481Z,999.83
2022-09-14T05:36:40.905Z,999.84
2022-09-14T05:37:16.012Z,999.81
2022-09-14T05:37:51.320Z,999.84
2022-09-14T05:38:26.651Z,999.83
2022-09-14T05:39:02.307Z,999.81
2022-09-14T05:39:37.433Z,999.84
2022-09-14T05:40:12.741Z,999.82
2022-09-14T05:40:48.030Z,999.85
2022-09-14T05:41:23.346Z,999.84
2022-09-14T05:41:58.583Z,999.81
2022-09-14T05:42:33.904Z,999.81
2022-09-14T05:43:09.125Z,999.81
2022-09-14T05:43:44.123Z,999.79
2022-09-14T05:44:19.679Z,999.83
2022-09-14T05:44:54.770Z,999.79
2022-09-14T05:45:29.971Z,999.81
2022-09-14T05:46:05.344Z,999.84
2022-09-14T05:46:40.760Z,999.80
2022-09-14T05:47:15.902Z,999.83
2022-09-14T05:47:50.920Z,999.80
2022-09-14T05:48:26.221Z,999.83
2022-09-14T05:49:01.751Z,999.85
2022-09-14T05:49:36.950Z,999.83
2022-09-14T05:50:12.261Z,999.83
2022-09-14T05:50:47.452Z,999.86
2022-09-14T05:51:22.659Z,999.87
2022-09-14T05:51:57.925Z,999.88
2022-09-14T05:52:33.127Z,999.82
2022-09-14T05:53:08.244Z,999.85
2022-09-14T05:53:43.397Z,999.85
2022-09-14T05:54:18.611Z,999.81
2022-09-14T05:54:54.133Z,999.80
2022-09-14T05:55:29.583Z,999.82
2022-09-14T05:56:04.983Z,999.80
2022-09-14T05:56:40.094Z,999.84
2022-09-14T05:57:15.636Z,999.80
2022-09-14T05:57:50.979Z,999.82
2022-09-14T05:58:26.414Z,999.85
2022-09-14T05:59:01.859Z,999.86
2022-09-14T05:59:37.191Z,999.88
2022-09-14T06:00:12.702Z,999.86
2022-09-14T06:00:48.010Z,999.87
2022-09-14T06:01:23.444Z,999.92
2022-09-14T06:01:58.567Z,999.87
2022-09-14T06:02:33.744Z,999.89
2022-09-14T06:03:09.177Z,999.89
2022-09-14T06:03:44.399Z,999.88
2022-09-14T06:04:19.842Z,999.88
2022-09-14T06:04:55.033Z,999.87
2022-09-14T06:05:30.041Z,999.84
2022-09-14T06:06:05.029Z,999.84
2022-09-14T06:06:40.271Z,999.83
2022-09-14T06:07:18.894Z,999.86
2022-09-14T06:07:51.296Z,999.85
2022-09-14T06:08:26.472Z,999.83
2022-09-14T06:09:01.597Z,999.84
2022-09-14T06:09:37.017Z,999.88
2022-09-14T06:10:12.538Z,999.88
2022-09-14T06:10:47.648Z,999.84
2022-09-14T06:11:22.802Z,999.83
2022-09-14T06:11:58.114Z,999.86
2022-09-14T06:12:33.148Z,999.86
2022-09-14T06:13:08.504Z,999.82
2022-09-14T06:13:43.772Z,999.82
2022-09-14T06:14:19.216Z,999.83
2022-09-14T06:14:54.333Z,999.84
2022-09-14T06:15:29.563Z,999.81
2022-09-14T06:16:05.019Z,999.83
2022-09-14T06:16:40.161Z,999.84
2022-09-14T06:17:15.585Z,999.83
2022-09-14T06:17:50.689Z,999.82
2022-09-14T06:18:25.945Z,999.81
2022-09-14T06:19:01.059Z,999.80
2022-09-14T06:19:36.487Z,999.80
2022-09-14T06:20:11.708Z,999.80
2022-09-14T06:20:47.057Z,999.82
2022-09-14T06:21:22.287Z,999.84
2022-09-14T06:21:57.812Z,999.85
2022-09-14T06:22:33.028Z,999.81
2022-09-14T06:23:08.433Z,999.84
2022-09-14T06:23:43.697Z,999.81
2022-09-14T06:24:19.329Z,999.78
2022-09-14T06:24:54.620Z,999.80
2022-09-14T06:25:29.694Z,999.78
2022-09-14T06:26:04.805Z,999.78
2022-09-14T06:26:40.056Z,999.76
2022-09-14T06:27:15.359Z,999.77
2022-09-14T06:27:50.725Z,999.74
2022-09-14T06:28:25.936Z,999.76
2022-09-14T06:29:01.452Z,999.77
2022-09-14T06:29:36.882Z,999.74
2022-09-14T06:30:12.068Z,999.74
2022-09-14T06:30:47.045Z,999.78
2022-09-14T06:31:22.267Z,999.79
2022-09-14T06:31:57.570Z,999.80
2022-09-14T06:32:33.088Z,999.79
2022-09-14T06:33:08.309Z,999.77
2022-09-14T06:33:43.629Z,999.81
2022-09-14T06:34:18.936Z,999.79
2022-09-14T06:34:54.028Z,999.82
2022-09-14T06:35:29.279Z,999.77
2022-09-14T06:36:04.290Z,999.81
2022-09-14T06:36:39.509Z,999.78
2022-09-14T06:37:14.980Z,999.82
2022-09-14T06:37:50.180Z,999.80
2022-09-14T06:38:25.111Z,999.78
2022-09-14T06:39:00.597Z,999.83
2022-09-14T06:39:35.818Z,999.79
2022-09-14T06:40:10.809Z,999.79
2022-09-14T06:40:46.406Z,999.84
2022-09-14T06:41:21.612Z,999.84
2022-09-14T06:41:56.875Z,999.83
2022-09-14T06:42:32.199Z,999.84
2022-09-14T06:43:07.550Z,999.81
2022-09-14T06:43:43.239Z,999.83
2022-09-14T06:44:18.735Z,999.87
2022-09-14T06:44:54.019Z,999.84
2022-09-14T06:45:29.256Z,999.88
2022-09-14T06:46:04.502Z,999.87
2022-09-14T06:46:40.002Z,999.88
2022-09-14T06:47:14.908Z,999.93
2022-09-14T06:47:50.253Z,999.92
2022-09-14T06:48:25.376Z,999.92
2022-09-14T06:49:00.512Z,999.91
2022-09-14T06:49:35.913Z,999.90
2022-09-14T06:50:11.241Z,999.90
2022-09-14T06:50:46.467Z,999.92
2022-09-14T06:51:21.698Z,999.92
2022-09-14T06:51:56.937Z,999.92
2022-09-14T06:52:33.808Z,999.91
2022-09-14T06:53:07.379Z,999.89
2022-09-14T06:53:43.259Z,999.91
2022-09-14T06:54:18.641Z,999.90
2022-09-14T06:54:54.075Z,999.93
2022-09-14T06:55:29.315Z,999.94
2022-09-14T06:56:04.346Z,999.91
2022-09-14T06:56:39.559Z,999.94
2022-09-14T06:57:14.787Z,999.96
2022-09-14T06:57:50.309Z,999.93
2022-09-14T06:58:25.506Z,999.96
2022-09-14T06:59:00.745Z,999.96
2022-09-14T06:59:36.311Z,999.96
2022-09-14T07:00:11.511Z,999.93
2022-09-14T07:00:47.061Z,999.93
2022-09-14T07:01:22.169Z,999.89
2022-09-14T07:01:57.389Z,999.93
2022-09-14T07:02:32.685Z,999.95
2022-09-14T07:03:08.021Z,999.92
2022-09-14T07:03:43.593Z,999.92
2022-09-14T07:04:19.029Z,999.91
2022-09-14T07:04:54.158Z,999.87
2022-09-14T07:05:29.553Z,999.87
2022-09-14T07:06:04.856Z,999.86
2022-09-14T07:06:40.125Z,999.83
2022-09-14T07:07:15.377Z,999.79
2022-09-14T07:07:50.516Z,999.77
2022-09-14T07:08:25.851Z,999.75
2022-09-14T07:09:01.330Z,999.78
2022-09-14T07:09:36.773Z,999.79
2022-09-14T07:10:12.187Z,999.76
2022-09-14T07:10:47.373Z,999.74
2022-09-14T07:11:22.618Z,999.76